sensor_id;sensor_type;location;lat;lon;timestamp;pressure;altitude;pressure_sealevel;temperature;humidity
73671;BME280;61968;48.178;11.566;2022-12-07T00:01:09;95693.09;;;1.89;50.56
73671;BME280;61968;48.178;11.566;2022-12-07T00:03:36;95698.56;;;1.80;49.64
73671;BME280;61968;48.178;11.566;2022-12-07T00:06:06;95690.69;;;1.88;50.47
73671;BME280;61968;48.178;11.566;2022-12-07T00:08:34;95690.66;;;2.11;49.45
73671;BME280;61968;48.178;11.566;2022-12-07T00:11:02;95687.41;;;2.24;49.14
73671;BME280;61968;48.178;11.566;2022-12-07T00:13:29;95679.03;;;2.13;48.93
73671;BME280;61968;48.178;11.566;2022-12-07T00:16:00;95686.28;;;1.88;49.55
73671;BME280;61968;48.178;11.566;2022-12-07T00:18:26;95687.00;;;1.97;50.23
73671;BME280;61968;48.178;11.566;2022-12-07T00:20:59;95678.97;;;1.46;49.76
73671;BME280;61968;48.178;11.566;2022-12-07T00:23:27;95685.88;;;1.77;49.90
73671;BME280;61968;48.178;11.566;2022-12-07T00:25:53;95680.34;;;1.94;49.44
73671;BME280;61968;48.178;11.566;2022-12-07T00:28:20;95677.47;;;1.89;48.58
73671;BME280;61968;48.178;11.566;2022-12-07T00:30:47;95674.44;;;1.63;49.98
73671;BME280;61968;48.178;11.566;2022-12-07T00:33:13;95674.00;;;1.74;49.54
73671;BME280;61968;48.178;11.566;2022-12-07T00:35:40;95681.09;;;1.65;49.75
73671;BME280;61968;48.178;11.566;2022-12-07T00:38:06;95679.53;;;1.56;49.61
73671;BME280;61968;48.178;11.566;2022-12-07T00:40:34;95673.84;;;1.76;49.62
73671;BME280;61968;48.178;11.566;2022-12-07T00:43:01;95675.19;;;1.48;50.16
73671;BME280;61968;48.178;11.566;2022-12-07T00:45:27;95674.41;;;1.48;50.32
73671;BME280;61968;48.178;11.566;2022-12-07T00:47:54;95667.28;;;1.34;50.61
73671;BME280;61968;48.178;11.566;2022-12-07T00:50:20;95678.50;;;1.42;50.33
73671;BME280;61968;48.178;11.566;2022-12-07T00:52:47;95678.88;;;1.77;50.12
73671;BME280;61968;48.178;11.566;2022-12-07T00:55:13;95680.44;;;2.01;49.31
73671;BME280;61968;48.178;11.566;2022-12-07T00:57:41;95677.94;;;1.93;48.66
73671;BME280;61968;48.178;11.566;2022-12-07T01:00:08;95676.97;;;2.09;48.91
73671;BME280;61968;48.178;11.566;2022-12-07T01:02:35;95675.00;;;2.11;47.99
73671;BME280;61968;48.178;11.566;2022-12-07T01:05:02;95678.78;;;2.23;47.95
73671;BME280;61968;48.178;11.566;2022-12-07T01:07:28;95672.72;;;2.23;48.47
73671;BME280;61968;48.178;11.566;2022-12-07T01:09:55;95675.56;;;1.83;48.55
73671;BME280;61968;48.178;11.566;2022-12-07T01:12:21;95667.75;;;1.98;48.90
73671;BME280;61968;48.178;11.566;2022-12-07T01:14:49;95677.16;;;2.22;48.94
73671;BME280;61968;48.178;11.566;2022-12-07T01:17:15;95673.91;;;2.05;48.46
73671;BME280;61968;48.178;11.566;2022-12-07T01:19:42;95674.91;;;2.19;48.31
73671;BME280;61968;48.178;11.566;2022-12-07T01:22:09;95682.72;;;2.34;48.15
73671;BME280;61968;48.178;11.566;2022-12-07T01:24:35;95678.44;;;2.41;47.93
73671;BME280;61968;48.178;11.566;2022-12-07T01:27:02;95679.50;;;2.47;47.93
73671;BME280;61968;48.178;11.566;2022-12-07T01:29:28;95669.84;;;2.03;48.47
73671;BME280;61968;48.178;11.566;2022-12-07T01:31:56;95673.06;;;1.90;49.37
73671;BME280;61968;48.178;11.566;2022-12-07T01:34:23;95675.94;;;1.95;49.10
73671;BME280;61968;48.178;11.566;2022-12-07T01:36:49;95681.44;;;2.00;48.88
73671;BME280;61968;48.178;11.566;2022-12-07T01:39:16;95673.19;;;2.11;48.21
73671;BME280;61968;48.178;11.566;2022-12-07T01:41:42;95671.66;;;2.02;48.84
73671;BME280;61968;48.178;11.566;2022-12-07T01:44:10;95670.13;;;2.08;49.10
73671;BME280;61968;48.178;11.566;2022-12-07T01:46:38;95675.97;;;2.25;48.47
73671;BME280;61968;48.178;11.566;2022-12-07T01:49:10;95668.59;;;1.99;48.86
73671;BME280;61968;48.178;11.566;2022-12-07T01:51:40;95674.16;;;1.58;49.85
73671;BME280;61968;48.178;11.566;2022-12-07T01:54:09;95663.94;;;1.71;49.61
73671;BME280;61968;48.178;11.566;2022-12-07T01:56:40;95661.94;;;1.96;49.38
73671;BME280;61968;48.178;11.566;2022-12-07T01:59:09;95664.66;;;2.17;48.53
73671;BME280;61968;48.178;11.566;2022-12-07T02:01:36;95665.38;;;2.26;48.71
73671;BME280;61968;48.178;11.566;2022-12-07T02:04:04;95674.53;;;2.22;48.78
73671;BME280;61968;48.178;11.566;2022-12-07T02:06:35;95663.44;;;1.90;49.19
73671;BME280;61968;48.178;11.566;2022-12-07T02:09:02;95671.88;;;1.78;49.82
73671;BME280;61968;48.178;11.566;2022-12-07T02:11:29;95664.22;;;1.38;50.33
73671;BME280;61968;48.178;11.566;2022-12-07T02:13:57;95661.63;;;1.53;50.31
73671;BME280;61968;48.178;11.566;2022-12-07T02:16:28;95663.88;;;1.79;49.39
73671;BME280;61968;48.178;11.566;2022-12-07T02:19:14;95655.72;;;1.97;49.48
73671;BME280;61968;48.178;11.566;2022-12-07T02:21:57;95654.38;;;2.16;48.35
73671;BME280;61968;48.178;11.566;2022-12-07T02:24:44;95660.97;;;2.12;48.75
73671;BME280;61968;48.178;11.566;2022-12-07T02:27:34;95654.56;;;2.14;48.32
73671;BME280;61968;48.178;11.566;2022-12-07T02:30:07;95650.34;;;2.28;49.05
73671;BME280;61968;48.178;11.566;2022-12-07T02:32:51;95652.78;;;2.15;48.60
73671;BME280;61968;48.178;11.566;2022-12-07T02:35:22;95645.94;;;2.29;48.81
73671;BME280;61968;48.178;11.566;2022-12-07T02:37:59;95656.00;;;2.32;48.31
73671;BME280;61968;48.178;11.566;2022-12-07T02:40:31;95648.66;;;2.35;48.14
73671;BME280;61968;48.178;11.566;2022-12-07T02:43:04;95647.84;;;2.35;47.95
73671;BME280;61968;48.178;11.566;2022-12-07T02:45:35;95645.41;;;2.18;48.43
73671;BME280;61968;48.178;11.566;2022-12-07T02:48:04;95646.75;;;2.14;48.21
73671;BME280;61968;48.178;11.566;2022-12-07T02:50:32;95649.81;;;2.18;48.37
73671;BME280;61968;48.178;11.566;2022-12-07T02:52:59;95642.34;;;2.30;48.42
73671;BME280;61968;48.178;11.566;2022-12-07T02:55:29;95650.63;;;2.18;48.53
73671;BME280;61968;48.178;11.566;2022-12-07T02:58:20;95643.16;;;2.15;49.01
73671;BME280;61968;48.178;11.566;2022-12-07T03:00:56;95649.25;;;2.23;48.46
73671;BME280;61968;48.178;11.566;2022-12-07T03:03:27;95641.78;;;2.20;48.13
73671;BME280;61968;48.178;11.566;2022-12-07T03:06:05;95647.47;;;2.08;48.65
73671;BME280;61968;48.178;11.566;2022-12-07T03:08:38;95646.00;;;1.91;48.92
73671;BME280;61968;48.178;11.566;2022-12-07T03:11:10;95647.84;;;2.20;48.41
73671;BME280;61968;48.178;11.566;2022-12-07T03:13:41;95646.84;;;2.21;47.86
73671;BME280;61968;48.178;11.566;2022-12-07T03:16:14;95641.06;;;2.26;48.40
73671;BME280;61968;48.178;11.566;2022-12-07T03:18:52;95644.16;;;2.14;48.35
73671;BME280;61968;48.178;11.566;2022-12-07T03:21:23;95636.75;;;2.18;48.39
73671;BME280;61968;48.178;11.566;2022-12-07T03:23:53;95648.53;;;2.29;47.74
73671;BME280;61968;48.178;11.566;2022-12-07T03:26:24;95643.16;;;2.15;48.20
73671;BME280;61968;48.178;11.566;2022-12-07T03:28:55;95642.06;;;2.10;48.49
73671;BME280;61968;48.178;11.566;2022-12-07T03:31:47;95643.44;;;2.21;48.18
73671;BME280;61968;48.178;11.566;2022-12-07T03:34:21;95641.44;;;2.08;48.59
73671;BME280;61968;48.178;11.566;2022-12-07T03:36:55;95641.91;;;2.11;48.74
73671;BME280;61968;48.178;11.566;2022-12-07T03:39:29;95639.00;;;2.21;47.88
73671;BME280;61968;48.178;11.566;2022-12-07T03:41:59;95640.25;;;2.25;47.95
73671;BME280;61968;48.178;11.566;2022-12-07T03:44:27;95635.13;;;2.32;48.10
73671;BME280;61968;48.178;11.566;2022-12-07T03:47:01;95639.91;;;1.99;48.80
73671;BME280;61968;48.178;11.566;2022-12-07T03:49:32;95637.81;;;1.94;48.71
73671;BME280;61968;48.178;11.566;2022-12-07T03:52:18;95639.44;;;1.34;50.29
73671;BME280;61968;48.178;11.566;2022-12-07T03:54:52;95637.78;;;1.18;50.48
73671;BME280;61968;48.178;11.566;2022-12-07T03:57:20;95630.72;;;1.50;50.19
73671;BME280;61968;48.178;11.566;2022-12-07T03:59:48;95636.44;;;1.83;49.90
73671;BME280;61968;48.178;11.566;2022-12-07T04:02:16;95629.00;;;1.95;49.00
73671;BME280;61968;48.178;11.566;2022-12-07T04:04:43;95623.78;;;1.95;48.41
73671;BME280;61968;48.178;11.566;2022-12-07T04:07:10;95626.53;;;2.02;47.97
73671;BME280;61968;48.178;11.566;2022-12-07T04:09:38;95625.78;;;1.93;48.87
73671;BME280;61968;48.178;11.566;2022-12-07T04:12:04;95623.63;;;2.11;48.38
73671;BME280;61968;48.178;11.566;2022-12-07T04:14:31;95624.84;;;1.86;48.59
73671;BME280;61968;48.178;11.566;2022-12-07T04:16:58;95625.44;;;1.58;49.22
73671;BME280;61968;48.178;11.566;2022-12-07T04:19:28;95630.81;;;1.42;49.50
73671;BME280;61968;48.178;11.566;2022-12-07T04:21:55;95631.06;;;1.47;49.62
73671;BME280;61968;48.178;11.566;2022-12-07T04:24:21;95625.84;;;1.24;51.15
73671;BME280;61968;48.178;11.566;2022-12-07T04:26:48;95626.78;;;1.08;51.09
73671;BME280;61968;48.178;11.566;2022-12-07T04:29:15;95633.78;;;1.31;51.24
73671;BME280;61968;48.178;11.566;2022-12-07T04:31:42;95630.00;;;1.41;50.32
73671;BME280;61968;48.178;11.566;2022-12-07T04:34:09;95636.38;;;1.31;51.46
73671;BME280;61968;48.178;11.566;2022-12-07T04:36:38;95627.31;;;1.49;50.63
73671;BME280;61968;48.178;11.566;2022-12-07T04:39:06;95639.75;;;1.62;50.63
73671;BME280;61968;48.178;11.566;2022-12-07T04:41:33;95626.19;;;1.44;50.91
73671;BME280;61968;48.178;11.566;2022-12-07T04:44:00;95623.88;;;1.49;51.71
73671;BME280;61968;48.178;11.566;2022-12-07T04:46:28;95626.56;;;1.41;51.56
73671;BME280;61968;48.178;11.566;2022-12-07T04:48:56;95623.25;;;1.47;51.13
73671;BME280;61968;48.178;11.566;2022-12-07T04:51:24;95626.84;;;1.46;51.41
73671;BME280;61968;48.178;11.566;2022-12-07T04:53:53;95630.88;;;1.25;52.79
73671;BME280;61968;48.178;11.566;2022-12-07T04:56:20;95632.56;;;1.64;51.66
73671;BME280;61968;48.178;11.566;2022-12-07T04:58:48;95630.06;;;1.86;51.00
73671;BME280;61968;48.178;11.566;2022-12-07T05:01:16;95621.03;;;1.97;50.54
73671;BME280;61968;48.178;11.566;2022-12-07T05:03:43;95633.69;;;1.85;50.53
73671;BME280;61968;48.178;11.566;2022-12-07T05:06:10;95628.09;;;1.88;50.92
73671;BME280;61968;48.178;11.566;2022-12-07T05:08:37;95626.78;;;1.54;51.40
73671;BME280;61968;48.178;11.566;2022-12-07T05:11:06;95633.66;;;1.47;51.38
73671;BME280;61968;48.178;11.566;2022-12-07T05:13:33;95630.03;;;1.33;52.42
73671;BME280;61968;48.178;11.566;2022-12-07T05:16:00;95631.66;;;1.11;52.61
73671;BME280;61968;48.178;11.566;2022-12-07T05:18:26;95632.25;;;1.13;52.47
73671;BME280;61968;48.178;11.566;2022-12-07T05:20:53;95633.63;;;1.32;52.77
73671;BME280;61968;48.178;11.566;2022-12-07T05:23:20;95626.38;;;1.19;52.20
73671;BME280;61968;48.178;11.566;2022-12-07T05:25:46;95634.22;;;1.34;52.35
73671;BME280;61968;48.178;11.566;2022-12-07T05:28:14;95626.75;;;1.39;51.46
73671;BME280;61968;48.178;11.566;2022-12-07T05:30:41;95625.97;;;1.54;51.73
73671;BME280;61968;48.178;11.566;2022-12-07T05:33:07;95627.03;;;1.44;51.53
73671;BME280;61968;48.178;11.566;2022-12-07T05:35:34;95631.72;;;1.26;51.63
73671;BME280;61968;48.178;11.566;2022-12-07T05:38:03;95633.56;;;1.17;52.04
73671;BME280;61968;48.178;11.566;2022-12-07T05:40:29;95635.28;;;1.02;51.96
73671;BME280;61968;48.178;11.566;2022-12-07T05:42:56;95635.97;;;0.96;52.39
73671;BME280;61968;48.178;11.566;2022-12-07T05:45:23;95626.56;;;0.55;54.15
73671;BME280;61968;48.178;11.566;2022-12-07T05:47:50;95635.72;;;0.83;53.64
73671;BME280;61968;48.178;11.566;2022-12-07T05:50:17;95626.63;;;0.78;53.00
73671;BME280;61968;48.178;11.566;2022-12-07T05:52:43;95626.44;;;1.11;52.27
73671;BME280;61968;48.178;11.566;2022-12-07T05:55:10;95627.88;;;1.37;51.82
73671;BME280;61968;48.178;11.566;2022-12-07T05:57:36;95625.25;;;1.37;51.34
73671;BME280;61968;48.178;11.566;2022-12-07T06:00:04;95631.34;;;1.06;52.12
73671;BME280;61968;48.178;11.566;2022-12-07T06:02:31;95634.31;;;1.26;51.08
73671;BME280;61968;48.178;11.566;2022-12-07T06:04:57;95628.75;;;1.06;51.61
73671;BME280;61968;48.178;11.566;2022-12-07T06:07:24;95638.75;;;0.94;52.49
73671;BME280;61968;48.178;11.566;2022-12-07T06:09:51;95634.72;;;0.84;52.41
73671;BME280;61968;48.178;11.566;2022-12-07T06:12:17;95628.06;;;1.12;51.55
73671;BME280;61968;48.178;11.566;2022-12-07T06:15:04;95631.16;;;1.31;51.24
73671;BME280;61968;48.178;11.566;2022-12-07T06:17:32;95633.25;;;1.12;52.04
73671;BME280;61968;48.178;11.566;2022-12-07T06:19:58;95649.72;;;1.36;51.50
73671;BME280;61968;48.178;11.566;2022-12-07T06:22:25;95644.75;;;1.49;51.00
73671;BME280;61968;48.178;11.566;2022-12-07T06:24:51;95641.53;;;1.16;51.60
73671;BME280;61968;48.178;11.566;2022-12-07T06:27:18;95651.88;;;1.01;52.38
73671;BME280;61968;48.178;11.566;2022-12-07T06:29:44;95642.41;;;1.31;51.64
73671;BME280;61968;48.178;11.566;2022-12-07T06:32:11;95648.91;;;1.35;50.63
73671;BME280;61968;48.178;11.566;2022-12-07T06:34:38;95648.59;;;1.30;51.21
73671;BME280;61968;48.178;11.566;2022-12-07T06:37:05;95652.13;;;1.37;51.41
73671;BME280;61968;48.178;11.566;2022-12-07T06:39:32;95655.41;;;1.62;50.78
73671;BME280;61968;48.178;11.566;2022-12-07T06:41:59;95646.00;;;1.53;50.71
73671;BME280;61968;48.178;11.566;2022-12-07T06:44:25;95650.06;;;1.33;51.10
73671;BME280;61968;48.178;11.566;2022-12-07T06:46:52;95646.22;;;1.20;51.67
73671;BME280;61968;48.178;11.566;2022-12-07T06:49:20;95651.44;;;1.43;51.27
73671;BME280;61968;48.178;11.566;2022-12-07T06:51:48;95651.09;;;1.69;50.52
73671;BME280;61968;48.178;11.566;2022-12-07T06:54:15;95657.75;;;1.72;50.72
73671;BME280;61968;48.178;11.566;2022-12-07T06:56:42;95652.81;;;1.92;50.75
73671;BME280;61968;48.178;11.566;2022-12-07T06:59:08;95656.84;;;1.80;50.81
73671;BME280;61968;48.178;11.566;2022-12-07T07:01:35;95659.56;;;1.71;50.62
73671;BME280;61968;48.178;11.566;2022-12-07T07:04:02;95655.78;;;1.89;50.29
73671;BME280;61968;48.178;11.566;2022-12-07T07:06:29;95658.63;;;2.02;49.91
73671;BME280;61968;48.178;11.566;2022-12-07T07:08:57;95658.25;;;1.67;49.66
73671;BME280;61968;48.178;11.566;2022-12-07T07:11:23;95657.31;;;1.37;50.73
73671;BME280;61968;48.178;11.566;2022-12-07T07:13:50;95661.38;;;1.48;51.01
73671;BME280;61968;48.178;11.566;2022-12-07T07:16:16;95660.16;;;1.74;49.97
73671;BME280;61968;48.178;11.566;2022-12-07T07:18:43;95656.06;;;1.56;49.75
73671;BME280;61968;48.178;11.566;2022-12-07T07:21:09;95671.28;;;1.21;50.31
73671;BME280;61968;48.178;11.566;2022-12-07T07:23:36;95660.16;;;1.04;51.30
73671;BME280;61968;48.178;11.566;2022-12-07T07:26:04;95661.59;;;0.84;52.23
73671;BME280;61968;48.178;11.566;2022-12-07T07:28:30;95663.06;;;1.10;51.51
73671;BME280;61968;48.178;11.566;2022-12-07T07:30:57;95659.22;;;0.97;51.83
73671;BME280;61968;48.178;11.566;2022-12-07T07:33:23;95666.13;;;1.13;51.56
73671;BME280;61968;48.178;11.566;2022-12-07T07:35:50;95657.16;;;1.16;50.57
73671;BME280;61968;48.178;11.566;2022-12-07T07:38:16;95666.78;;;0.84;51.38
73671;BME280;61968;48.178;11.566;2022-12-07T07:40:43;95668.31;;;0.70;52.28
73671;BME280;61968;48.178;11.566;2022-12-07T07:43:11;95669.59;;;1.06;51.51
73671;BME280;61968;48.178;11.566;2022-12-07T07:45:37;95665.66;;;1.10;51.32
73671;BME280;61968;48.178;11.566;2022-12-07T07:48:04;95665.72;;;1.24;50.56
73671;BME280;61968;48.178;11.566;2022-12-07T07:50:30;95661.31;;;1.25;49.94
73671;BME280;61968;48.178;11.566;2022-12-07T07:52:57;95672.50;;;1.34;50.27
73671;BME280;61968;48.178;11.566;2022-12-07T07:55:24;95672.41;;;1.50;49.26
73671;BME280;61968;48.178;11.566;2022-12-07T07:57:50;95674.56;;;1.46;49.88
73671;BME280;61968;48.178;11.566;2022-12-07T08:00:18;95669.56;;;1.37;49.27
73671;BME280;61968;48.178;11.566;2022-12-07T08:02:45;95669.25;;;1.32;49.45
73671;BME280;61968;48.178;11.566;2022-12-07T08:05:12;95674.75;;;1.45;49.46
73671;BME280;61968;48.178;11.566;2022-12-07T08:07:39;95667.75;;;1.37;49.17
73671;BME280;61968;48.178;11.566;2022-12-07T08:10:07;95670.22;;;1.39;50.28
73671;BME280;61968;48.178;11.566;2022-12-07T08:12:36;95671.09;;;1.54;49.48
73671;BME280;61968;48.178;11.566;2022-12-07T08:15:03;95674.75;;;1.37;49.97
73671;BME280;61968;48.178;11.566;2022-12-07T08:17:31;95681.34;;;1.24;49.89
73671;BME280;61968;48.178;11.566;2022-12-07T08:19:59;95684.44;;;0.66;51.25
73671;BME280;61968;48.178;11.566;2022-12-07T08:22:25;95685.06;;;0.68;51.59
73671;BME280;61968;48.178;11.566;2022-12-07T08:24:52;95685.53;;;0.71;51.24
73671;BME280;61968;48.178;11.566;2022-12-07T08:27:18;95684.69;;;0.79;51.63
73671;BME280;61968;48.178;11.566;2022-12-07T08:29:45;95682.19;;;1.17;51.08
73671;BME280;61968;48.178;11.566;2022-12-07T08:32:11;95686.38;;;1.03;51.51
73671;BME280;61968;48.178;11.566;2022-12-07T08:34:39;95679.66;;;0.77;51.17
73671;BME280;61968;48.178;11.566;2022-12-07T08:37:05;95686.53;;;0.70;51.84
73671;BME280;61968;48.178;11.566;2022-12-07T08:39:32;95684.41;;;0.26;53.16
73671;BME280;61968;48.178;11.566;2022-12-07T08:41:58;95678.78;;;0.54;51.76
73671;BME280;61968;48.178;11.566;2022-12-07T08:44:25;95682.44;;;0.76;52.39
73671;BME280;61968;48.178;11.566;2022-12-07T08:46:53;95680.25;;;0.96;51.42
73671;BME280;61968;48.178;11.566;2022-12-07T08:49:24;95682.00;;;1.26;50.59
73671;BME280;61968;48.178;11.566;2022-12-07T08:51:55;95679.31;;;1.35;49.70
73671;BME280;61968;48.178;11.566;2022-12-07T08:54:21;95688.47;;;1.31;50.50
73671;BME280;61968;48.178;11.566;2022-12-07T08:56:49;95684.91;;;1.00;51.16
73671;BME280;61968;48.178;11.566;2022-12-07T08:59:17;95687.31;;;1.33;50.74
73671;BME280;61968;48.178;11.566;2022-12-07T09:01:45;95684.81;;;1.48;49.96
73671;BME280;61968;48.178;11.566;2022-12-07T09:04:11;95687.69;;;1.53;49.23
73671;BME280;61968;48.178;11.566;2022-12-07T09:06:38;95680.31;;;1.42;49.68
73671;BME280;61968;48.178;11.566;2022-12-07T09:09:07;95685.50;;;1.42;49.90
73671;BME280;61968;48.178;11.566;2022-12-07T09:11:35;95682.63;;;1.60;49.09
73671;BME280;61968;48.178;11.566;2022-12-07T09:14:01;95687.50;;;1.32;48.89
73671;BME280;61968;48.178;11.566;2022-12-07T09:16:30;95686.97;;;1.44;49.34
73671;BME280;61968;48.178;11.566;2022-12-07T09:18:57;95684.72;;;1.41;48.66
73671;BME280;61968;48.178;11.566;2022-12-07T09:21:23;95678.06;;;1.31;49.48
73671;BME280;61968;48.178;11.566;2022-12-07T09:23:50;95675.28;;;1.32;49.12
73671;BME280;61968;48.178;11.566;2022-12-07T09:26:18;95681.44;;;1.39;48.28
73671;BME280;61968;48.178;11.566;2022-12-07T09:28:44;95675.66;;;1.29;48.38
73671;BME280;61968;48.178;11.566;2022-12-07T09:31:11;95689.28;;;1.08;48.31
73671;BME280;61968;48.178;11.566;2022-12-07T09:33:37;95695.28;;;1.09;48.88
73671;BME280;61968;48.178;11.566;2022-12-07T09:36:04;95688.19;;;1.57;47.99
73671;BME280;61968;48.178;11.566;2022-12-07T09:38:31;95690.47;;;1.75;46.99
73671;BME280;61968;48.178;11.566;2022-12-07T09:40:57;95682.66;;;1.89;46.02
73671;BME280;61968;48.178;11.566;2022-12-07T09:43:31;95680.81;;;1.98;46.45
73671;BME280;61968;48.178;11.566;2022-12-07T09:45:57;95676.38;;;1.84;46.69
73671;BME280;61968;48.178;11.566;2022-12-07T09:48:29;95677.41;;;2.12;46.24
73671;BME280;61968;48.178;11.566;2022-12-07T09:50:57;95672.63;;;2.01;46.30
73671;BME280;61968;48.178;11.566;2022-12-07T09:53:27;95672.47;;;1.42;47.56
73671;BME280;61968;48.178;11.566;2022-12-07T09:55:54;95673.44;;;1.18;48.24
73671;BME280;61968;48.178;11.566;2022-12-07T09:58:23;95669.06;;;1.41;47.78
73671;BME280;61968;48.178;11.566;2022-12-07T10:00:55;95662.72;;;1.82;47.13
73671;BME280;61968;48.178;11.566;2022-12-07T10:03:23;95660.91;;;1.82;47.57
73671;BME280;61968;48.178;11.566;2022-12-07T10:05:51;95654.25;;;1.80;47.36
73671;BME280;61968;48.178;11.566;2022-12-07T10:08:18;95652.94;;;1.99;46.94
73671;BME280;61968;48.178;11.566;2022-12-07T10:10:49;95655.34;;;1.85;47.00
73671;BME280;61968;48.178;11.566;2022-12-07T10:13:19;95655.28;;;1.93;46.23
73671;BME280;61968;48.178;11.566;2022-12-07T10:15:49;95651.56;;;1.27;47.35
73671;BME280;61968;48.178;11.566;2022-12-07T10:18:26;95651.91;;;1.47;47.35
73671;BME280;61968;48.178;11.566;2022-12-07T10:21:04;95656.81;;;1.19;48.36
73671;BME280;61968;48.178;11.566;2022-12-07T10:23:33;95658.31;;;1.44;47.31
73671;BME280;61968;48.178;11.566;2022-12-07T10:26:19;95657.41;;;1.29;47.91
73671;BME280;61968;48.178;11.566;2022-12-07T10:28:46;95654.91;;;1.36;48.56
73671;BME280;61968;48.178;11.566;2022-12-07T10:31:16;95646.38;;;1.65;47.25
73671;BME280;61968;48.178;11.566;2022-12-07T10:33:51;95651.75;;;1.86;46.17
73671;BME280;61968;48.178;11.566;2022-12-07T10:36:21;95650.50;;;1.97;46.17
73671;BME280;61968;48.178;11.566;2022-12-07T10:38:50;95643.44;;;1.68;46.01
73671;BME280;61968;48.178;11.566;2022-12-07T10:41:17;95641.22;;;1.80;46.28
73671;BME280;61968;48.178;11.566;2022-12-07T10:43:52;95644.88;;;1.70;44.37
73671;BME280;61968;48.178;11.566;2022-12-07T10:46:41;95641.72;;;1.60;45.10
73671;BME280;61968;48.178;11.566;2022-12-07T10:49:32;95631.84;;;1.70;44.82
73671;BME280;61968;48.178;11.566;2022-12-07T10:52:08;95630.91;;;1.48;45.11
73671;BME280;61968;48.178;11.566;2022-12-07T10:54:43;95629.66;;;1.59;45.23
73671;BME280;61968;48.178;11.566;2022-12-07T10:57:25;95632.06;;;2.13;44.26
73671;BME280;61968;48.178;11.566;2022-12-07T11:00:02;95617.94;;;2.37;43.44
73671;BME280;61968;48.178;11.566;2022-12-07T11:02:52;95633.78;;;2.36;41.29
73671;BME280;61968;48.178;11.566;2022-12-07T11:05:27;95615.59;;;1.68;42.31
73671;BME280;61968;48.178;11.566;2022-12-07T11:08:03;95618.94;;;1.92;43.13
73671;BME280;61968;48.178;11.566;2022-12-07T11:10:34;95613.38;;;2.25;42.32
73671;BME280;61968;48.178;11.566;2022-12-07T11:13:20;95606.72;;;2.22;42.33
73671;BME280;61968;48.178;11.566;2022-12-07T11:15:59;95604.91;;;2.23;41.36
73671;BME280;61968;48.178;11.566;2022-12-07T11:18:32;95607.06;;;2.34;40.97
73671;BME280;61968;48.178;11.566;2022-12-07T11:21:09;95604.38;;;2.42;41.00
73671;BME280;61968;48.178;11.566;2022-12-07T11:23:46;95603.63;;;2.63;39.78
73671;BME280;61968;48.178;11.566;2022-12-07T11:26:20;95598.06;;;2.51;39.53
73671;BME280;61968;48.178;11.566;2022-12-07T11:29:08;95593.13;;;2.42;40.20
73671;BME280;61968;48.178;11.566;2022-12-07T11:31:50;95588.53;;;2.80;39.87
73671;BME280;61968;48.178;11.566;2022-12-07T11:34:29;95591.28;;;2.72;39.38
73671;BME280;61968;48.178;11.566;2022-12-07T11:37:02;95585.44;;;3.13;39.03
73671;BME280;61968;48.178;11.566;2022-12-07T11:39:33;95585.88;;;3.16;39.46
73671;BME280;61968;48.178;11.566;2022-12-07T11:42:04;95588.75;;;3.21;39.05
73671;BME280;61968;48.178;11.566;2022-12-07T11:44:37;95579.78;;;2.88;38.10
73671;BME280;61968;48.178;11.566;2022-12-07T11:47:09;95578.84;;;2.59;38.54
73671;BME280;61968;48.178;11.566;2022-12-07T11:49:43;95584.59;;;2.03;39.54
73671;BME280;61968;48.178;11.566;2022-12-07T11:52:20;95573.34;;;2.03;40.68
73671;BME280;61968;48.178;11.566;2022-12-07T11:54:50;95566.06;;;2.13;40.96
73671;BME280;61968;48.178;11.566;2022-12-07T11:57:22;95562.78;;;2.40;39.91
73671;BME280;61968;48.178;11.566;2022-12-07T11:59:53;95567.63;;;2.44;39.79
73671;BME280;61968;48.178;11.566;2022-12-07T12:02:28;95564.06;;;2.30;40.64
73671;BME280;61968;48.178;11.566;2022-12-07T12:05:02;95561.88;;;2.48;40.27
73671;BME280;61968;48.178;11.566;2022-12-07T12:07:33;95562.28;;;2.15;40.98
73671;BME280;61968;48.178;11.566;2022-12-07T12:10:04;95561.66;;;1.69;40.93
73671;BME280;61968;48.178;11.566;2022-12-07T12:12:55;95560.97;;;1.90;40.53
73671;BME280;61968;48.178;11.566;2022-12-07T12:15:38;95554.03;;;1.97;40.75
73671;BME280;61968;48.178;11.566;2022-12-07T12:18:31;95553.72;;;2.22;40.34
73671;BME280;61968;48.178;11.566;2022-12-07T12:21:06;95548.28;;;1.87;40.50
73671;BME280;61968;48.178;11.566;2022-12-07T12:23:40;95541.88;;;1.89;40.29
73671;BME280;61968;48.178;11.566;2022-12-07T12:26:15;95544.56;;;1.52;41.99
73671;BME280;61968;48.178;11.566;2022-12-07T12:28:50;95546.25;;;2.33;41.02
73671;BME280;61968;48.178;11.566;2022-12-07T12:31:32;95543.38;;;2.28;40.61
73671;BME280;61968;48.178;11.566;2022-12-07T12:34:02;95539.28;;;1.75;41.22
73671;BME280;61968;48.178;11.566;2022-12-07T12:36:44;95544.78;;;2.46;40.59
73671;BME280;61968;48.178;11.566;2022-12-07T12:39:14;95542.09;;;2.39;40.71
73671;BME280;61968;48.178;11.566;2022-12-07T12:41:58;95536.31;;;2.80;39.77
73671;BME280;61968;48.178;11.566;2022-12-07T12:45:04;95537.50;;;2.77;39.44
73671;BME280;61968;48.178;11.566;2022-12-07T12:50:28;95539.91;;;3.00;38.98
73671;BME280;61968;48.178;11.566;2022-12-07T12:56:20;95542.66;;;3.35;38.53
73671;BME280;61968;48.178;11.566;2022-12-07T12:59:19;95538.66;;;3.39;38.68
73671;BME280;61968;48.178;11.566;2022-12-07T13:01:49;95534.94;;;3.83;37.98
73671;BME280;61968;48.178;11.566;2022-12-07T13:04:30;95527.78;;;3.36;38.74
73671;BME280;61968;48.178;11.566;2022-12-07T13:07:01;95523.22;;;3.44;38.49
73671;BME280;61968;48.178;11.566;2022-12-07T13:09:29;95525.13;;;3.29;38.87
73671;BME280;61968;48.178;11.566;2022-12-07T13:12:02;95525.00;;;3.44;38.66
73671;BME280;61968;48.178;11.566;2022-12-07T13:14:52;95522.53;;;3.29;38.00
73671;BME280;61968;48.178;11.566;2022-12-07T13:20:47;95517.47;;;3.55;38.76
73671;BME280;61968;48.178;11.566;2022-12-07T13:23:18;95519.09;;;3.91;38.36
73671;BME280;61968;48.178;11.566;2022-12-07T13:25:51;95514.31;;;4.02;37.66